Time;durP1;ratioP1;P1;durP2;ratioP2;P2;SDS_P1;SDS_P2;PMS_P1;PMS_P2;Temp;Humidity;BMP_temperature;BMP_pressure;BME280_temperature;BME280_humidity;BME280_pressure;Samples;Min_cycle;Max_cycle;Signal;HPM_P1;HPM_P2
2021/08/14 00:00:19;;;;;;;1.87;1.73;;;17.80;86.70;;;;;;2049265;28;20275;-66
2021/08/14 00:01:19;;;;;;;3.87;2.33;;;17.70;86.90;;;;;;2049875;28;20210;-66
2021/08/14 00:02:20;;;;;;;3.17;2.80;;;17.70;87.10;;;;;;2049609;28;20564;-66
2021/08/14 00:03:21;;;;;;;3.10;2.53;;;17.60;87.20;;;;;;2049774;29;20192;-66
2021/08/14 00:04:22;;;;;;;3.03;2.47;;;17.60;87.30;;;;;;2049853;28;20643;-66
2021/08/14 00:05:22;;;;;;;3.00;1.93;;;17.60;87.20;;;;;;2049216;29;20188;-66
2021/08/14 00:06:23;;;;;;;3.27;2.70;;;17.60;87.20;;;;;;2049135;29;20215;-65
2021/08/14 00:07:24;;;;;;;7.70;2.90;;;17.60;87.10;;;;;;2049622;28;20203;-66
2021/08/14 00:08:24;;;;;;;3.30;2.43;;;17.60;87.00;;;;;;2049747;28;20303;-66
2021/08/14 00:09:25;;;;;;;2.50;2.30;;;17.60;87.30;;;;;;2049757;28;20195;-66
2021/08/14 00:10:26;;;;;;;2.63;2.13;;;17.70;87.20;;;;;;2049692;28;20187;-66
2021/08/14 00:11:27;;;;;;;1.83;1.73;;;17.60;87.30;;;;;;2049782;28;20204;-65
2021/08/14 00:12:28;;;;;;;2.77;2.57;;;17.60;87.40;;;;;;2049503;28;20203;-66
2021/08/14 00:13:29;;;;;;;2.80;2.50;;;17.60;87.30;;;;;;2049737;28;20926;-65
2021/08/14 00:14:30;;;;;;;6.13;2.73;;;17.60;87.30;;;;;;2049706;28;20199;-66
2021/08/14 00:15:30;;;;;;;2.57;1.93;;;17.60;87.40;;;;;;2049141;29;20187;-65
2021/08/14 00:16:31;;;;;;;2.00;1.90;;;17.60;87.40;;;;;;2049116;29;20434;-66
2021/08/14 00:17:32;;;;;;;3.90;2.43;;;17.50;87.40;;;;;;2049577;29;20184;-65
2021/08/14 00:18:32;;;;;;;1.63;1.53;;;17.50;87.40;;;;;;2049620;28;20654;-66
2021/08/14 00:19:33;;;;;;;3.53;2.30;;;17.50;87.50;;;;;;2049584;28;20183;-66
2021/08/14 00:20:34;;;;;;;3.70;2.17;;;17.50;87.60;;;;;;2049645;28;20239;-65
2021/08/14 00:21:35;;;;;;;1.97;1.67;;;17.50;87.60;;;;;;2049764;28;20630;-65
2021/08/14 00:22:35;;;;;;;4.33;2.10;;;17.50;87.80;;;;;;2048972;28;20234;-66
2021/08/14 00:23:36;;;;;;;2.90;2.40;;;17.50;87.90;;;;;;2051581;28;20214;-66
2021/08/14 00:24:37;;;;;;;1.83;1.60;;;17.40;87.50;;;;;;2049676;28;20188;-65
2021/08/14 00:25:38;;;;;;;6.80;2.13;;;17.40;87.50;;;;;;2049662;28;20187;-66
2021/08/14 00:26:39;;;;;;;2.53;1.50;;;17.40;87.40;;;;;;2049667;28;20856;-65
2021/08/14 00:27:39;;;;;;;1.80;1.70;;;17.40;87.40;;;;;;2049499;28;20266;-64
2021/08/14 00:28:41;;;;;;;2.57;2.37;;;17.40;87.50;;;;;;2049829;28;20191;-65
2021/08/14 00:29:43;;;;;;;4.67;2.23;;;17.40;87.60;;;;;;2049655;28;20602;-65
2021/08/14 00:30:43;;;;;;;2.73;1.90;;;17.40;87.80;;;;;;2049543;28;20802;-65
2021/08/14 00:31:44;;;;;;;3.50;2.30;;;17.40;87.70;;;;;;2049600;28;20451;-67
2021/08/14 00:32:45;;;;;;;4.63;2.27;;;17.30;87.70;;;;;;2049473;28;20697;-66
2021/08/14 00:33:46;;;;;;;2.50;1.97;;;17.30;87.60;;;;;;2049530;28;20183;-65
2021/08/14 00:34:46;;;;;;;2.60;2.00;;;17.30;87.60;;;;;;2049568;28;20666;-66
2021/08/14 00:35:47;;;;;;;2.00;1.77;;;17.30;87.60;;;;;;2049454;28;20597;-66
2021/08/14 00:36:48;;;;;;;3.20;2.07;;;17.30;87.70;;;;;;2049589;28;20184;-65
2021/08/14 00:37:48;;;;;;;3.00;2.07;;;17.30;87.90;;;;;;2049295;28;20188;-67
2021/08/14 00:38:49;;;;;;;3.33;2.50;;;17.30;88.30;;;;;;2049469;28;20176;-66
2021/08/14 00:39:50;;;;;;;2.43;2.10;;;17.20;88.80;;;;;;2049350;28;20203;-67
2021/08/14 00:40:51;;;;;;;1.77;1.63;;;17.10;89.10;;;;;;2049513;28;20263;-65
2021/08/14 00:41:51;;;;;;;3.60;2.47;;;17.10;89.10;;;;;;2049286;28;20274;-65
2021/08/14 00:42:52;;;;;;;2.80;2.57;;;17.10;89.10;;;;;;2049455;28;20231;-66
2021/08/14 00:43:53;;;;;;;3.43;3.13;;;17.10;89.20;;;;;;2048805;29;20176;-66
2021/08/14 00:44:54;;;;;;;2.73;2.53;;;17.10;89.10;;;;;;2040983;29;20189;-65
2021/08/14 00:45:59;;;;;;;2.80;2.47;;;17.10;89.10;;;;;;2040854;29;20180;-65
2021/08/14 00:47:03;;;;;;;2.23;2.03;;;17.00;89.40;;;;;;2048720;28;20473;-66
2021/08/14 00:48:06;;;;;;;2.23;2.03;;;17.00;90.30;;;;;;2048851;28;20419;-65
2021/08/14 00:49:07;;;;;;;2.73;2.13;;;17.00;89.80;;;;;;2041196;29;20423;-65
2021/08/14 00:50:12;;;;;;;2.80;2.10;;;16.90;89.80;;;;;;2048759;29;20427;-66
2021/08/14 00:51:13;;;;;;;2.70;2.00;;;16.90;89.90;;;;;;2049590;28;20183;-66
2021/08/14 00:52:14;;;;;;;7.50;2.60;;;16.90;90.00;;;;;;2049344;28;21046;-65
2021/08/14 00:53:15;;;;;;;4.20;2.87;;;16.90;90.10;;;;;;2049472;29;20207;-65
2021/08/14 00:54:15;;;;;;;3.07;2.33;;;16.90;90.10;;;;;;2049461;28;20270;-65
2021/08/14 00:55:16;;;;;;;3.83;2.27;;;16.90;90.10;;;;;;2049501;28;20415;-67
2021/08/14 00:56:25;;;;;;;2.83;2.20;;;16.90;89.90;;;;;;2049368;28;20209;-67
2021/08/14 00:57:26;;;;;;;2.30;2.10;;;16.90;89.80;;;;;;2049227;28;20172;-65
2021/08/14 00:58:27;;;;;;;3.60;2.63;;;16.90;89.70;;;;;;2048749;29;20427;-65
2021/08/14 00:59:29;;;;;;;4.43;3.10;;;16.90;89.30;;;;;;2040747;29;20668;-65
2021/08/14 01:00:30;;;;;;;1.50;1.40;;;16.90;89.20;;;;;;2048641;29;20798;-65
2021/08/14 01:01:30;;;;;;;2.57;2.37;;;16.90;89.10;;;;;;2049274;28;20420;-66
2021/08/14 01:02:31;;;;;;;2.50;2.30;;;16.90;89.30;;;;;;2049239;28;20581;-66
2021/08/14 01:03:33;;;;;;;2.73;2.50;;;16.90;89.40;;;;;;2048710;28;20184;-65
2021/08/14 01:04:34;;;;;;;3.27;2.70;;;16.90;89.30;;;;;;2048679;29;20188;-65
2021/08/14 01:05:38;;;;;;;3.13;2.43;;;16.90;89.30;;;;;;2048653;29;20518;-67
2021/08/14 01:06:39;;;;;;;2.63;1.90;;;16.80;89.30;;;;;;2048677;29;20551;-65
2021/08/14 01:07:39;;;;;;;3.63;2.60;;;16.80;89.40;;;;;;2049046;28;20467;-66
2021/08/14 01:08:42;;;;;;;2.27;2.17;;;16.80;89.40;;;;;;2049227;28;20198;-66
2021/08/14 01:09:43;;;;;;;3.47;2.00;;;16.80;89.20;;;;;;2048600;29;20179;-66
2021/08/14 01:10:44;;;;;;;3.70;3.03;;;16.80;89.20;;;;;;2048535;29;20423;-66
2021/08/14 01:11:45;;;;;;;4.47;3.27;;;16.70;89.50;;;;;;2048668;28;20430;-66
2021/08/14 01:12:49;;;;;;;3.70;2.90;;;16.70;89.80;;;;;;2049089;28;20946;-65
2021/08/14 01:13:51;;;;;;;4.67;2.90;;;16.70;89.80;;;;;;2049287;28;20203;-65
2021/08/14 01:14:52;;;;;;;8.73;3.47;;;16.70;89.70;;;;;;2049204;28;20428;-65
2021/08/14 01:15:53;;;;;;;2.83;2.30;;;16.70;89.80;;;;;;2049277;28;20458;-65
2021/08/14 01:16:53;;;;;;;5.60;3.03;;;16.70;89.80;;;;;;2049052;28;20199;-66
2021/08/14 01:17:56;;;;;;;2.47;1.60;;;16.70;89.80;;;;;;2049309;28;20184;-65
2021/08/14 01:18:57;;;;;;;3.40;2.13;;;16.70;89.80;;;;;;2048550;29;20171;-66
2021/08/14 01:19:58;;;;;;;2.47;2.27;;;16.60;89.70;;;;;;2040652;29;21117;-66
2021/08/14 01:20:58;;;;;;;5.50;2.50;;;16.60;89.80;;;;;;2048553;29;20258;-66
2021/08/14 01:21:59;;;;;;;13.90;2.80;;;16.60;89.90;;;;;;2049155;28;20629;-66
2021/08/14 01:23:00;;;;;;;3.17;2.50;;;16.60;89.90;;;;;;2049236;28;20176;-65
2021/08/14 01:24:04;;;;;;;2.27;2.07;;;16.60;90.00;;;;;;2048598;29;20179;-66
2021/08/14 01:25:10;;;;;;;2.43;2.23;;;16.60;90.00;;;;;;2048514;29;20667;-65
2021/08/14 01:26:13;;;;;;;2.87;2.50;;;16.60;90.00;;;;;;2049214;28;20432;-66
2021/08/14 01:27:15;;;;;;;2.50;2.30;;;16.60;90.00;;;;;;2048963;28;20550;-66
2021/08/14 01:28:16;;;;;;;2.87;2.50;;;16.60;89.90;;;;;;2048543;29;20427;-66
2021/08/14 01:29:17;;;;;;;5.20;2.57;;;16.60;90.00;;;;;;2048436;29;20436;-65
2021/08/14 01:30:18;;;;;;;3.20;2.90;;;16.50;90.00;;;;;;2049146;28;20176;-66
2021/08/14 01:31:19;;;;;;;3.30;2.60;;;16.50;90.20;;;;;;2049116;28;20461;-65
2021/08/14 01:32:20;;;;;;;2.10;2.00;;;16.50;90.20;;;;;;2049181;28;20376;-66
2021/08/14 01:33:20;;;;;;;4.87;2.37;;;16.50;90.30;;;;;;2049112;28;20663;-66
2021/08/14 01:34:21;;;;;;;2.67;2.47;;;16.50;90.40;;;;;;2048557;29;20725;-66
2021/08/14 01:35:22;;;;;;;2.60;2.40;;;16.40;90.30;;;;;;2048398;29;20176;-65
2021/08/14 01:36:23;;;;;;;2.00;1.73;;;16.40;90.30;;;;;;2049210;28;20737;-66
2021/08/14 01:37:23;;;;;;;2.03;1.83;;;16.40;90.30;;;;;;2049033;28;20180;-66
2021/08/14 01:38:24;;;;;;;3.03;2.33;;;16.40;90.30;;;;;;2049113;28;20215;-65
2021/08/14 01:39:25;;;;;;;2.33;2.17;;;16.40;90.20;;;;;;2048289;28;20234;-65
2021/08/14 01:40:25;;;;;;;2.63;2.27;;;16.40;90.20;;;;;;2048429;29;20742;-67
2021/08/14 01:41:28;;;;;;;3.13;2.83;;;16.40;90.20;;;;;;2048968;28;20190;-65
2021/08/14 01:42:28;;;;;;;1.97;1.83;;;16.40;90.10;;;;;;2048977;28;20914;-66
2021/08/14 01:43:29;;;;;;;8.23;1.93;;;16.40;90.20;;;;;;2048983;28;20431;-66
2021/08/14 01:44:33;;;;;;;3.07;2.70;;;16.40;90.10;;;;;;2048967;28;20183;-65
2021/08/14 01:45:34;;;;;;;2.30;2.20;;;16.40;90.20;;;;;;2048417;29;20271;-65
2021/08/14 01:46:41;;;;;;;1.80;1.70;;;16.40;90.20;;;;;;2040414;29;20424;-65
2021/08/14 01:47:42;;;;;;;3.22;2.80;;;16.30;90.20;;;;;;2048252;29;20230;-65
2021/08/14 01:48:42;;;;;;;3.43;1.97;;;16.40;90.20;;;;;;2048998;28;20214;-65
2021/08/14 01:49:43;;;;;;;2.50;2.30;;;16.30;90.10;;;;;;2048237;29;20215;-66
2021/08/14 01:50:44;;;;;;;4.20;2.30;;;16.30;90.10;;;;;;2040327;29;20850;-65
2021/08/14 01:51:45;;;;;;;2.53;2.07;;;16.30;90.30;;;;;;2048349;29;20300;-65
2021/08/14 01:52:45;;;;;;;3.70;1.73;;;16.20;90.30;;;;;;2048238;28;20602;-65
2021/08/14 01:53:55;;;;;;;3.33;2.57;;;16.30;90.20;;;;;;2048394;29;20427;-65
2021/08/14 01:54:56;;;;;;;2.25;1.92;;;16.20;90.30;;;;;;2048908;28;20168;-66
2021/08/14 01:55:56;;;;;;;2.80;2.27;;;16.20;90.50;;;;;;2048947;29;20574;-66
2021/08/14 01:56:57;;;;;;;2.67;2.47;;;16.20;90.50;;;;;;2048256;29;20180;-66
2021/08/14 01:57:58;;;;;;;3.73;2.07;;;16.20;90.60;;;;;;2048426;29;20175;-65
2021/08/14 01:59:01;;;;;;;4.00;2.83;;;16.20;90.60;;;;;;2048958;28;20264;-65
2021/08/14 02:00:01;;;;;;;3.25;2.67;;;16.10;90.70;;;;;;2049034;28;20186;-66
2021/08/14 02:01:02;;;;;;;2.27;2.07;;;16.10;90.70;;;;;;2048375;29;20168;-66
2021/08/14 02:02:03;;;;;;;4.20;2.67;;;16.10;90.70;;;;;;2048368;28;20175;-66
2021/08/14 02:03:04;;;;;;;2.25;2.05;;;16.10;90.80;;;;;;2048883;28;20176;-65
2021/08/14 02:04:06;;;;;;;2.13;2.00;;;16.10;90.70;;;;;;2049067;28;20179;-66
2021/08/14 02:05:07;;;;;;;4.78;2.53;;;16.10;90.80;;;;;;2048828;28;20180;-66
2021/08/14 02:06:08;;;;;;;2.78;2.55;;;16.10;90.70;;;;;;2048283;29;20184;-65
2021/08/14 02:07:09;;;;;;;4.93;2.50;;;16.10;90.60;;;;;;2040212;29;20315;-66
2021/08/14 02:08:09;;;;;;;3.10;2.83;;;16.10;90.70;;;;;;2040462;29;20184;-65
2021/08/14 02:09:10;;;;;;;3.13;2.53;;;16.10;90.70;;;;;;2048262;29;20176;-66
2021/08/14 02:10:11;;;;;;;2.60;1.70;;;16.10;90.70;;;;;;2048832;28;20639;-66
2021/08/14 02:11:18;;;;;;;3.13;2.73;;;16.10;90.70;;;;;;2048181;28;20280;-66
2021/08/14 02:12:19;;;;;;;2.40;2.20;;;16.10;90.80;;;;;;2041283;29;20196;-66
2021/08/14 02:13:20;;;;;;;2.57;2.37;;;16.10;90.60;;;;;;2048218;29;20218;-66
2021/08/14 02:14:20;;;;;;;2.47;1.90;;;16.10;90.60;;;;;;2048888;29;20182;-65
2021/08/14 02:15:21;;;;;;;2.37;2.17;;;16.10;90.70;;;;;;2048890;28;20274;-66
2021/08/14 02:16:23;;;;;;;3.93;1.97;;;16.10;90.60;;;;;;2048969;28;20180;-66
2021/08/14 02:17:23;;;;;;;3.33;2.30;;;16.00;90.50;;;;;;2048172;29;20191;-65
2021/08/14 02:18:24;;;;;;;6.00;2.27;;;16.00;90.60;;;;;;2040479;29;20428;-66
2021/08/14 02:19:25;;;;;;;1.53;1.40;;;16.00;90.40;;;;;;2040303;29;20207;-66
2021/08/14 02:20:25;;;;;;;2.03;1.83;;;16.00;90.50;;;;;;2048334;29;20187;-66
2021/08/14 02:21:27;;;;;;;2.17;2.00;;;16.00;90.60;;;;;;2048799;28;20180;-66
2021/08/14 02:22:28;;;;;;;2.33;1.90;;;16.00;90.60;;;;;;2048856;28;20204;-65
2021/08/14 02:23:29;;;;;;;2.00;1.90;;;16.00;90.60;;;;;;2048640;28;20477;-64
2021/08/14 02:24:30;;;;;;;2.30;2.10;;;16.00;90.60;;;;;;2049009;28;20218;-65
2021/08/14 02:25:31;;;;;;;3.03;2.73;;;15.90;90.60;;;;;;2048220;29;20814;-65
2021/08/14 02:26:32;;;;;;;3.07;2.77;;;16.00;90.60;;;;;;2048172;29;20614;-66
2021/08/14 02:27:32;;;;;;;6.57;3.03;;;15.90;90.60;;;;;;2048634;28;20211;-65
2021/08/14 02:28:34;;;;;;;2.67;2.17;;;15.90;90.60;;;;;;2048945;28;20613;-65
2021/08/14 02:29:34;;;;;;;8.63;2.13;;;15.90;90.60;;;;;;2048807;28;20188;-65
2021/08/14 02:30:35;;;;;;;3.27;2.13;;;15.90;90.70;;;;;;2049021;28;20447;-66
2021/08/14 02:31:36;;;;;;;3.27;1.90;;;15.90;90.80;;;;;;2048862;28;20183;-67
2021/08/14 02:32:37;;;;;;;2.53;2.20;;;15.90;90.80;;;;;;2048893;28;20243;-66
2021/08/14 02:33:37;;;;;;;5.10;2.30;;;15.90;90.90;;;;;;2051260;28;20207;-66
2021/08/14 02:34:38;;;;;;;2.70;2.47;;;15.90;90.80;;;;;;2048809;28;20238;-66
2021/08/14 02:35:39;;;;;;;2.27;2.07;;;15.90;90.80;;;;;;2048859;28;20194;-66
2021/08/14 02:36:39;;;;;;;2.60;2.37;;;15.90;90.70;;;;;;2048825;28;20180;-67
2021/08/14 02:37:40;;;;;;;2.37;2.17;;;15.90;90.80;;;;;;2048665;28;20622;-66
2021/08/14 02:38:41;;;;;;;2.93;1.97;;;15.90;90.80;;;;;;2048780;28;20206;-65
2021/08/14 02:39:42;;;;;;;3.03;2.80;;;15.90;90.80;;;;;;2048664;28;20218;-66
2021/08/14 02:40:46;;;;;;;3.70;2.87;;;15.90;90.90;;;;;;2048733;28;20200;-67
2021/08/14 02:41:47;;;;;;;1.73;1.63;;;15.80;90.90;;;;;;2048611;28;20678;-66
2021/08/14 02:42:47;;;;;;;1.83;1.73;;;15.80;91.00;;;;;;2048669;28;20199;-66
2021/08/14 02:43:49;;;;;;;3.30;2.67;;;15.90;91.10;;;;;;2047711;28;20962;-66
2021/08/14 02:44:49;;;;;;;2.20;2.00;;;15.90;91.00;;;;;;2047962;29;20251;-67
2021/08/14 02:45:50;;;;;;;2.23;2.03;;;15.90;91.00;;;;;;2047999;28;20646;-66
2021/08/14 02:46:51;;;;;;;2.53;2.33;;;15.90;91.00;;;;;;2056450;28;20190;-66
2021/08/14 02:47:54;;;;;;;3.07;2.37;;;15.90;91.00;;;;;;2056629;28;20175;-66
2021/08/14 02:48:54;;;;;;;2.42;2.22;;;15.90;91.00;;;;;;2056686;28;20230;-66
2021/08/14 02:49:55;;;;;;;2.50;1.80;;;16.00;91.00;;;;;;2055901;28;20175;-66
2021/08/14 02:50:56;;;;;;;1.33;1.23;;;16.00;90.90;;;;;;2056144;28;20175;-66
2021/08/14 02:51:57;;;;;;;3.92;2.67;;;16.00;90.90;;;;;;2056445;28;20178;-66
2021/08/14 02:52:58;;;;;;;1.73;1.63;;;16.00;90.90;;;;;;2056571;28;20610;-66
2021/08/14 02:53:58;;;;;;;3.20;2.13;;;16.00;90.90;;;;;;2056497;28;20240;-67
2021/08/14 02:54:59;;;;;;;4.20;1.83;;;15.90;90.90;;;;;;2056566;28;20645;-65
2021/08/14 02:56:00;;;;;;;9.47;2.07;;;16.00;90.90;;;;;;2056651;28;20301;-65
2021/08/14 02:57:00;;;;;;;3.67;2.17;;;15.90;90.90;;;;;;2056512;28;20183;-65
2021/08/14 02:58:01;;;;;;;3.63;3.10;;;16.00;90.80;;;;;;2056586;28;20266;-66
2021/08/14 02:59:02;;;;;;;1.73;1.63;;;16.00;91.00;;;;;;2056449;28;20304;-66
2021/08/14 03:00:03;;;;;;;3.57;2.67;;;16.00;90.80;;;;;;2056453;28;20171;-66
2021/08/14 03:01:04;;;;;;;3.03;1.80;;;16.00;90.80;;;;;;2055862;28;20187;-67
2021/08/14 03:02:05;;;;;;;2.00;1.73;;;16.00;90.80;;;;;;2047878;28;20478;-65
2021/08/14 03:03:05;;;;;;;4.17;2.47;;;16.00;90.80;;;;;;2055806;28;20199;-66
2021/08/14 03:04:06;;;;;;;2.43;1.93;;;16.00;90.80;;;;;;2056640;28;20709;-67
2021/08/14 03:05:07;;;;;;;2.73;1.67;;;15.90;90.80;;;;;;2056526;28;20178;-66
2021/08/14 03:06:27;;;;;;;3.07;2.00;;;15.90;90.70;;;;;;2056530;28;20555;-66
2021/08/14 03:07:33;;;;;;;4.47;2.00;;;15.90;90.70;;;;;;2056331;28;20462;-66
2021/08/14 03:08:34;;;;;;;2.37;2.17;;;15.90;90.70;;;;;;2056564;28;20522;-66
2021/08/14 03:09:35;;;;;;;2.57;2.10;;;15.90;90.70;;;;;;2056420;28;20469;-66
2021/08/14 03:10:40;;;;;;;3.73;2.43;;;15.80;90.70;;;;;;2055905;28;20570;-66
2021/08/14 03:11:41;;;;;;;2.27;2.07;;;15.80;90.80;;;;;;2055984;28;20199;-66
2021/08/14 03:12:42;;;;;;;3.23;2.93;;;15.80;90.80;;;;;;2055707;28;20454;-66
2021/08/14 03:13:42;;;;;;;2.17;2.07;;;15.80;90.80;;;;;;2056001;28;20274;-65
2021/08/14 03:14:43;;;;;;;2.33;2.13;;;15.80;90.90;;;;;;2056623;28;20190;-66
2021/08/14 03:15:44;;;;;;;2.53;2.13;;;15.80;90.90;;;;;;2056518;28;20186;-65
2021/08/14 03:16:44;;;;;;;2.27;2.07;;;15.80;91.00;;;;;;2056721;28;20728;-66
2021/08/14 03:17:45;;;;;;;3.60;2.47;;;15.80;91.10;;;;;;2056350;28;20223;-66
2021/08/14 03:18:46;;;;;;;2.20;1.90;;;15.70;91.10;;;;;;2056602;28;20556;-66
2021/08/14 03:19:46;;;;;;;2.07;1.90;;;15.80;91.20;;;;;;2056526;28;20187;-66
2021/08/14 03:20:47;;;;;;;1.80;1.70;;;15.70;91.00;;;;;;2055970;28;20206;-66
2021/08/14 03:21:48;;;;;;;3.10;2.03;;;15.70;91.00;;;;;;2055920;28;20559;-65
2021/08/14 03:22:48;;;;;;;6.63;2.67;;;15.70;90.90;;;;;;2056573;28;20210;-66
2021/08/14 03:23:49;;;;;;;2.50;2.30;;;15.80;90.80;;;;;;2055908;28;20194;-66
2021/08/14 03:24:50;;;;;;;4.90;1.33;;;15.80;90.80;;;;;;2047971;29;20223;-66
2021/08/14 03:25:51;;;;;;;2.73;2.47;;;15.80;90.70;;;;;;2056065;28;20246;-66
2021/08/14 03:26:51;;;;;;;2.83;2.33;;;15.80;90.70;;;;;;2056392;28;20270;-66
2021/08/14 03:27:52;;;;;;;2.33;1.80;;;15.80;90.80;;;;;;2056554;28;20187;-65
2021/08/14 03:28:53;;;;;;;5.63;4.03;;;15.80;90.80;;;;;;2056660;28;20180;-66
2021/08/14 03:29:54;;;;;;;2.47;2.28;;;15.80;90.90;;;;;;2056427;28;20685;-65
2021/08/14 03:30:54;;;;;;;3.40;2.40;;;15.80;90.90;;;;;;2056626;28;20186;-65
2021/08/14 03:31:56;;;;;;;2.07;1.87;;;15.80;90.90;;;;;;2056481;28;20650;-65
2021/08/14 03:32:56;;;;;;;3.28;2.20;;;15.80;90.80;;;;;;2056670;28;20266;-66
2021/08/14 03:33:58;;;;;;;1.63;1.53;;;15.80;90.70;;;;;;2056399;28;20183;-64
2021/08/14 03:34:58;;;;;;;2.37;1.97;;;15.80;90.70;;;;;;2056802;28;20184;-66
2021/08/14 03:35:59;;;;;;;2.97;2.60;;;15.80;90.60;;;;;;2057369;28;20500;-66
2021/08/14 03:37:00;;;;;;;2.43;2.23;;;15.80;90.70;;;;;;2057522;28;20207;-65
2021/08/14 03:38:00;;;;;;;4.27;2.67;;;15.80;90.60;;;;;;2058196;28;20217;-66
2021/08/14 03:39:01;;;;;;;1.67;1.57;;;15.80;90.60;;;;;;2058169;28;20548;-66
2021/08/14 03:40:03;;;;;;;2.90;2.43;;;15.80;90.70;;;;;;2057919;28;20186;-66
2021/08/14 03:41:05;;;;;;;2.40;1.67;;;15.80;90.70;;;;;;2058041;28;20187;-66
2021/08/14 03:42:06;;;;;;;4.90;2.93;;;15.80;90.70;;;;;;2057968;28;21029;-65
2021/08/14 03:43:06;;;;;;;3.30;2.33;;;15.80;90.80;;;;;;2058222;28;20418;-66
2021/08/14 03:44:07;;;;;;;2.37;2.17;;;15.80;90.80;;;;;;2058053;28;20669;-65
2021/08/14 03:45:08;;;;;;;3.33;2.03;;;15.80;90.70;;;;;;2058009;28;20175;-66
2021/08/14 03:46:09;;;;;;;2.43;2.20;;;15.80;90.80;;;;;;2057402;28;20171;-66
2021/08/14 03:47:10;;;;;;;2.73;2.43;;;15.80;90.70;;;;;;2057386;28;20482;-65
2021/08/14 03:48:10;;;;;;;2.03;1.80;;;15.80;90.80;;;;;;2057971;28;20171;-66
2021/08/14 03:49:11;;;;;;;5.30;2.37;;;15.70;90.80;;;;;;2057959;28;20604;-67
2021/08/14 03:50:13;;;;;;;2.80;2.00;;;15.70;90.80;;;;;;2057398;28;20207;-66
2021/08/14 03:51:14;;;;;;;3.10;2.57;;;15.70;90.80;;;;;;2049818;28;20195;-67
2021/08/14 03:52:15;;;;;;;2.23;1.73;;;15.70;90.90;;;;;;2057420;28;20493;-66
2021/08/14 03:53:16;;;;;;;3.37;2.10;;;15.70;90.90;;;;;;2057984;28;20265;-66
2021/08/14 03:54:16;;;;;;;2.43;2.23;;;15.70;91.00;;;;;;2058103;28;20265;-66
2021/08/14 03:55:17;;;;;;;4.57;2.43;;;15.70;91.00;;;;;;2058080;28;20238;-65
2021/08/14 03:56:18;;;;;;;1.97;1.87;;;15.70;90.90;;;;;;2058039;28;20183;-65
2021/08/14 03:57:18;;;;;;;2.00;1.90;;;15.70;91.00;;;;;;2057817;28;20211;-66
2021/08/14 03:58:19;;;;;;;2.53;2.27;;;15.70;91.00;;;;;;2058146;28;20218;-65
2021/08/14 03:59:20;;;;;;;3.83;2.33;;;15.70;91.10;;;;;;2058051;28;20183;-66
2021/08/14 04:00:21;;;;;;;3.83;2.67;;;15.70;91.20;;;;;;2058097;28;20215;-65
2021/08/14 04:01:21;;;;;;;4.80;2.20;;;15.70;91.20;;;;;;2057256;28;20198;-65
2021/08/14 04:02:22;;;;;;;5.13;3.23;;;15.70;91.30;;;;;;2057253;28;20203;-66
2021/08/14 04:03:23;;;;;;;10.43;2.97;;;15.70;91.30;;;;;;2057926;28;20189;-66
2021/08/14 04:04:23;;;;;;;2.50;2.30;;;15.60;91.30;;;;;;2057929;28;20187;-65
2021/08/14 04:05:24;;;;;;;4.20;2.70;;;15.60;91.30;;;;;;2057764;28;20568;-65
2021/08/14 04:06:25;;;;;;;3.03;2.33;;;15.60;91.40;;;;;;2057718;28;20237;-66
2021/08/14 04:07:26;;;;;;;1.83;1.47;;;15.60;91.30;;;;;;2057541;28;20207;-65
2021/08/14 04:08:26;;;;;;;1.97;1.70;;;15.60;91.80;;;;;;2057899;28;20179;-66
2021/08/14 04:09:27;;;;;;;2.73;2.53;;;15.50;91.30;;;;;;2057231;28;20183;-65
2021/08/14 04:10:28;;;;;;;1.97;1.87;;;15.50;91.30;;;;;;2057300;28;20265;-65
2021/08/14 04:11:28;;;;;;;2.87;1.97;;;15.50;91.20;;;;;;2057859;28;20665;-67
2021/08/14 04:12:30;;;;;;;3.03;2.60;;;15.50;91.10;;;;;;2057925;28;20203;-65
2021/08/14 04:13:31;;;;;;;2.43;1.90;;;15.50;91.00;;;;;;2057326;28;20295;-66
2021/08/14 04:14:31;;;;;;;3.00;2.70;;;15.40;90.90;;;;;;2057285;28;20426;-65
2021/08/14 04:15:32;;;;;;;2.77;2.27;;;15.50;90.90;;;;;;2057950;28;20180;-65
2021/08/14 04:16:33;;;;;;;2.13;2.00;;;15.50;91.00;;;;;;2057909;28;20175;-65
2021/08/14 04:17:33;;;;;;;1.20;1.10;;;15.50;91.00;;;;;;2057677;28;20190;-66
2021/08/14 04:18:34;;;;;;;3.33;2.80;;;15.40;91.00;;;;;;2057910;28;20650;-65
2021/08/14 04:19:35;;;;;;;5.63;3.20;;;15.50;91.10;;;;;;2057837;28;20182;-66
2021/08/14 04:20:36;;;;;;;2.80;2.33;;;15.40;91.10;;;;;;2058012;28;20179;-65
2021/08/14 04:21:36;;;;;;;2.83;2.35;;;15.40;91.10;;;;;;2057312;28;20724;-66
2021/08/14 04:22:37;;;;;;;6.33;2.57;;;15.40;91.10;;;;;;2057259;28;20206;-66
2021/08/14 04:23:38;;;;;;;2.30;2.10;;;15.40;91.10;;;;;;2057909;28;20528;-65
2021/08/14 04:24:39;;;;;;;4.27;2.03;;;15.40;91.10;;;;;;2057853;28;20179;-66
2021/08/14 04:25:39;;;;;;;3.23;2.03;;;15.40;91.10;;;;;;2056443;28;20187;-66
2021/08/14 04:26:40;;;;;;;3.43;2.07;;;15.40;91.00;;;;;;2051852;28;20198;-65
2021/08/14 04:27:41;;;;;;;4.20;2.53;;;15.40;91.00;;;;;;2049494;28;20215;-66
2021/08/14 04:28:41;;;;;;;2.60;2.20;;;15.40;91.00;;;;;;2049756;28;20175;-66
2021/08/14 04:29:42;;;;;;;3.20;2.37;;;15.40;91.00;;;;;;2049662;28;20176;-65
2021/08/14 04:30:43;;;;;;;2.43;2.20;;;15.40;91.10;;;;;;2049684;28;20183;-65
2021/08/14 04:31:43;;;;;;;2.83;2.63;;;15.40;91.10;;;;;;2049674;28;20191;-66
2021/08/14 04:32:44;;;;;;;2.07;1.87;;;15.40;91.10;;;;;;2049544;28;20286;-66
2021/08/14 04:33:45;;;;;;;2.73;2.50;;;15.40;91.10;;;;;;2049696;28;20222;-66
2021/08/14 04:34:45;;;;;;;2.73;2.40;;;15.40;91.10;;;;;;2049030;29;20231;-65
2021/08/14 04:35:47;;;;;;;2.93;1.93;;;15.40;91.10;;;;;;2049059;29;20179;-65
2021/08/14 04:36:47;;;;;;;1.65;1.55;;;15.40;91.30;;;;;;2049502;28;20271;-65
2021/08/14 04:37:49;;;;;;;3.13;2.03;;;15.50;91.30;;;;;;2049510;28;20713;-66
2021/08/14 04:38:49;;;;;;;2.45;2.25;;;15.40;91.30;;;;;;2049549;28;20620;-66
2021/08/14 04:39:50;;;;;;;4.27;2.57;;;15.40;91.30;;;;;;2049047;29;20199;-65
2021/08/14 04:40:51;;;;;;;2.23;2.03;;;15.40;91.30;;;;;;2048954;29;20219;-66
2021/08/14 04:41:51;;;;;;;2.13;1.87;;;15.40;91.40;;;;;;2049503;28;20282;-65
2021/08/14 04:42:52;;;;;;;2.87;2.53;;;15.40;91.40;;;;;;2049507;28;20729;-65
2021/08/14 04:43:53;;;;;;;3.33;3.03;;;15.40;91.40;;;;;;2049608;28;20235;-65
2021/08/14 04:44:54;;;;;;;2.37;2.23;;;15.50;91.30;;;;;;2049576;28;20175;-64
2021/08/14 04:45:54;;;;;;;3.57;2.70;;;15.50;91.40;;;;;;2049534;28;20183;-66
2021/08/14 04:46:55;;;;;;;4.43;2.40;;;15.50;91.30;;;;;;2049312;28;20274;-65
2021/08/14 04:47:56;;;;;;;1.73;1.63;;;15.50;91.20;;;;;;2049531;28;20211;-66
2021/08/14 04:48:56;;;;;;;1.90;1.77;;;15.50;91.10;;;;;;2049463;28;20204;-65
2021/08/14 04:49:57;;;;;;;2.50;2.27;;;15.60;91.10;;;;;;2049463;28;20187;-66
2021/08/14 04:50:58;;;;;;;5.63;1.80;;;15.60;91.10;;;;;;2048935;28;20238;-66
2021/08/14 04:51:58;;;;;;;2.07;1.97;;;15.60;91.20;;;;;;2048757;28;20213;-66
2021/08/14 04:52:59;;;;;;;3.63;2.10;;;15.60;91.20;;;;;;2049463;28;20199;-66
2021/08/14 04:54:00;;;;;;;2.63;2.10;;;15.60;91.20;;;;;;2048962;29;20635;-66
2021/08/14 04:55:01;;;;;;;1.93;1.83;;;15.70;91.20;;;;;;2048754;29;20467;-67
2021/08/14 04:56:02;;;;;;;2.73;1.93;;;15.70;91.10;;;;;;2047372;29;20219;-65
2021/08/14 04:57:03;;;;;;;2.73;1.93;;;15.70;91.10;;;;;;2048028;29;20423;-66
2021/08/14 04:58:04;;;;;;;4.53;2.20;;;15.70;91.00;;;;;;2049324;28;20565;-66
2021/08/14 04:59:04;;;;;;;2.20;2.00;;;15.70;90.90;;;;;;2049221;29;20507;-67
2021/08/14 05:00:06;;;;;;;2.23;2.03;;;15.80;90.90;;;;;;2049396;28;20810;-66
2021/08/14 05:01:07;;;;;;;3.00;2.67;;;15.80;91.00;;;;;;2048582;29;20563;-65
2021/08/14 05:02:07;;;;;;;2.50;1.63;;;15.70;90.90;;;;;;2048752;28;20423;-66
2021/08/14 05:03:08;;;;;;;2.20;2.00;;;15.80;90.80;;;;;;2049262;28;20640;-66
2021/08/14 05:04:09;;;;;;;2.27;2.07;;;15.80;90.80;;;;;;2049409;28;20203;-66
2021/08/14 05:05:10;;;;;;;4.80;2.07;;;15.80;90.80;;;;;;2049271;28;20231;-67
2021/08/14 05:06:10;;;;;;;2.90;2.13;;;15.80;90.80;;;;;;2049294;28;20198;-65
2021/08/14 05:07:11;;;;;;;18.23;2.80;;;15.90;90.90;;;;;;2048845;28;20965;-67
2021/08/14 05:08:12;;;;;;;3.03;2.67;;;15.80;90.80;;;;;;2049273;28;20206;-66
2021/08/14 05:09:12;;;;;;;4.90;2.47;;;15.90;90.90;;;;;;2048966;28;20184;-66
2021/08/14 05:10:14;;;;;;;2.23;1.47;;;15.90;90.90;;;;;;2049123;28;20263;-66
2021/08/14 05:11:15;;;;;;;2.45;1.60;;;15.90;91.00;;;;;;2040546;29;20191;-65
2021/08/14 05:12:16;;;;;;;3.23;3.00;;;15.90;90.90;;;;;;2040702;29;20618;-66
2021/08/14 05:13:18;;;;;;;1.35;1.27;;;15.90;90.90;;;;;;2049262;28;20183;-66
2021/08/14 05:14:19;;;;;;;2.63;1.80;;;15.80;91.00;;;;;;2049091;29;20561;-66
2021/08/14 05:15:19;;;;;;;2.53;2.27;;;15.90;91.00;;;;;;2049183;28;20423;-66
2021/08/14 05:16:24;;;;;;;6.93;2.33;;;15.90;90.90;;;;;;2049133;28;20439;-66
2021/08/14 05:17:25;;;;;;;2.90;2.60;;;15.90;90.80;;;;;;2048807;28;20694;-66